createdAt,value
2019-02-11T00:02:23.012Z,101396.40
2019-02-11T00:05:00.812Z,101399.69
2019-02-11T00:07:30.051Z,101409.20
2019-02-11T00:10:05.702Z,101413.27
2019-02-11T00:12:36.949Z,101424.13
2019-02-11T00:15:08.341Z,101433.34
2019-02-11T00:17:45.856Z,101438.20
2019-02-11T00:20:20.150Z,101443.94
2019-02-11T00:23:03.867Z,101443.41
2019-02-11T00:25:41.720Z,101444.77
2019-02-11T00:28:11.603Z,101449.95
2019-02-11T00:30:48.410Z,101459.19
2019-02-11T00:33:22.097Z,101457.05
2019-02-11T00:35:53.425Z,101475.27
2019-02-11T00:38:29.325Z,101467.66
2019-02-11T00:40:59.899Z,101471.45
2019-02-11T00:43:31.636Z,101488.77
2019-02-11T00:46:03.982Z,101491.73
2019-02-11T00:48:40.424Z,101499.62
2019-02-11T00:51:13.273Z,101503.42
2019-02-11T00:53:45.150Z,101510.41
2019-02-11T00:56:17.009Z,101524.53
2019-02-11T00:58:47.136Z,101532.12
2019-02-11T01:01:20.740Z,101529.71
2019-02-11T01:03:57.779Z,101535.14
2019-02-11T01:06:31.025Z,101542.17
2019-02-11T01:09:04.808Z,101551.08
2019-02-11T01:11:41.620Z,101568.18
2019-02-11T01:14:12.924Z,101565.47
2019-02-11T01:16:42.445Z,101570.89
2019-02-11T01:19:22.689Z,101597.95
2019-02-11T01:21:52.535Z,101585.50
2019-02-11T01:24:24.545Z,101595.30
2019-02-11T01:26:56.344Z,101598.02
2019-02-11T01:29:38.174Z,101598.57
2019-02-11T01:32:21.957Z,101605.66
2019-02-11T01:37:29.662Z,101604.05
2019-02-11T01:40:03.945Z,101604.89
2019-02-11T01:42:33.048Z,101605.94
2019-02-11T01:45:03.593Z,101611.36
2019-02-11T01:47:36.425Z,101618.98
2019-02-11T01:50:06.550Z,101616.20
2019-02-11T01:52:39.088Z,101622.98
2019-02-11T01:55:09.747Z,101633.03
2019-02-11T01:57:43.701Z,101635.75
2019-02-11T02:00:17.661Z,101637.88
2019-02-11T02:02:49.946Z,101647.89
2019-02-11T02:05:28.014Z,101653.03
2019-02-11T02:07:59.541Z,101648.66
2019-02-11T02:10:36.345Z,101658.15
2019-02-11T02:13:10.461Z,101659.23
2019-02-11T02:15:46.144Z,101677.37
2019-02-11T02:18:16.220Z,101674.91
2019-02-11T02:20:49.516Z,101683.05
2019-02-11T02:23:25.834Z,101693.90
2019-02-11T02:25:57.439Z,101701.20
2019-02-11T02:28:28.050Z,101714.48
2019-02-11T02:30:59.556Z,101712.58
2019-02-11T02:33:31.263Z,101722.63
2019-02-11T02:36:01.018Z,101716.36
2019-02-11T02:38:33.109Z,101718.80
2019-02-11T02:41:04.538Z,101722.27
2019-02-11T02:43:36.552Z,101712.19
2019-02-11T02:46:08.139Z,101710.25
2019-02-11T02:48:40.243Z,101702.59
2019-02-11T02:51:10.803Z,101697.94
2019-02-11T02:53:41.429Z,101700.66
2019-02-11T02:56:17.120Z,101702.25
2019-02-11T02:58:54.612Z,101715.73
2019-02-11T03:01:36.958Z,101723.28
2019-02-11T03:06:46.437Z,101752.27
2019-02-11T03:09:20.776Z,101763.95
2019-02-11T03:11:53.975Z,101763.47
2019-02-11T03:14:26.162Z,101768.89
2019-02-11T03:16:58.017Z,101768.89
2019-02-11T03:19:28.876Z,101769.97
2019-02-11T03:22:00.943Z,101763.19
2019-02-11T03:24:31.341Z,101778.58
2019-02-11T03:27:02.925Z,101786.89
2019-02-11T03:29:36.813Z,101774.02
2019-02-11T03:32:07.212Z,101773.14
2019-02-11T03:34:37.345Z,101778.50
2019-02-11T03:37:12.023Z,101780.33
2019-02-11T03:39:49.422Z,101785.63
2019-02-11T03:42:22.374Z,101790.70
2019-02-11T03:44:57.804Z,101794.69
2019-02-11T03:47:28.858Z,101807.59
2019-02-11T03:50:01.802Z,101815.05
2019-02-11T03:52:35.857Z,101830.71
2019-02-11T03:55:05.849Z,101832.59
2019-02-11T03:57:35.862Z,101830.03
2019-02-11T04:00:17.039Z,101831.31
2019-02-11T04:02:50.552Z,101845.33
2019-02-11T04:05:23.183Z,101851.45
2019-02-11T04:07:59.103Z,101861.61
2019-02-11T04:10:31.471Z,101872.31
2019-02-11T04:13:05.342Z,101882.70
2019-02-11T04:15:35.718Z,101887.75
2019-02-11T04:18:13.170Z,101900.64
2019-02-11T04:20:45.112Z,101904.84
2019-02-11T04:23:25.174Z,101908.77
2019-02-11T04:26:01.484Z,101905.98
2019-02-11T04:28:38.524Z,101912.69
2019-02-11T04:31:11.466Z,101922.68
2019-02-11T04:33:58.349Z,101920.49
2019-02-11T04:36:33.878Z,101929.97
2019-02-11T04:39:07.570Z,101929.69
2019-02-11T04:41:43.216Z,101938.33
2019-02-11T04:44:17.002Z,101948.03
2019-02-11T04:46:51.706Z,101949.38
2019-02-11T04:49:27.137Z,101947.10
2019-02-11T04:51:59.110Z,101957.36
2019-02-11T04:54:32.551Z,101957.78
2019-02-11T04:57:06.606Z,101975.09
2019-02-11T04:59:36.964Z,101983.64
2019-02-11T05:02:10.509Z,101993.95
2019-02-11T05:04:41.352Z,102007.80
2019-02-11T05:07:15.991Z,102022.98
2019-02-11T05:09:48.162Z,102043.57
2019-02-11T05:12:19.381Z,102047.73
2019-02-11T05:14:52.426Z,102056.36
2019-02-11T05:17:24.720Z,102060.52
2019-02-11T05:19:58.782Z,102051.66
2019-02-11T05:22:28.047Z,102047.13
2019-02-11T05:25:05.257Z,102044.00
2019-02-11T05:27:40.065Z,102047.09
2019-02-11T05:30:12.066Z,102046.41
2019-02-11T05:32:47.313Z,102052.20
2019-02-11T05:35:17.239Z,102054.45
2019-02-11T05:37:48.736Z,102068.59
2019-02-11T05:40:17.991Z,102070.33
2019-02-11T05:42:47.947Z,102073.04
2019-02-11T05:45:20.894Z,102082.52
2019-02-11T05:47:52.262Z,102080.05
2019-02-11T05:50:29.731Z,102094.09
2019-02-11T05:53:02.254Z,102097.13
2019-02-11T05:55:31.287Z,102100.58
2019-02-11T05:58:04.215Z,102117.80
2019-02-11T06:00:36.642Z,102122.84
2019-02-11T06:03:10.365Z,102135.48
2019-02-11T06:05:40.486Z,102131.55
2019-02-11T06:08:11.262Z,102132.00
2019-02-11T06:10:42.362Z,102137.09
2019-02-11T06:13:11.812Z,102146.80
2019-02-11T06:15:46.141Z,102151.70
2019-02-11T06:18:17.227Z,102153.79
2019-02-11T06:20:50.154Z,102159.11
2019-02-11T06:23:29.598Z,102161.75
2019-02-11T06:28:41.508Z,102164.81
2019-02-11T06:31:12.548Z,102168.55
2019-02-11T06:33:42.708Z,102171.19
2019-02-11T06:38:50.110Z,102180.34
2019-02-11T06:41:22.746Z,102191.09
2019-02-11T06:43:52.910Z,102192.34
2019-02-11T06:46:25.642Z,102204.82
2019-02-11T06:48:57.933Z,102213.48
2019-02-11T06:51:34.113Z,102212.65
2019-02-11T06:54:05.170Z,102225.34
2019-02-11T06:56:34.689Z,102237.30
2019-02-11T06:59:07.155Z,102245.12
2019-02-11T07:01:39.660Z,102248.06
2019-02-11T07:04:08.637Z,102263.16
2019-02-11T07:06:41.565Z,102259.52
2019-02-11T07:09:12.487Z,102269.21
2019-02-11T07:11:46.243Z,102260.98
2019-02-11T07:14:23.957Z,102277.66
2019-02-11T07:16:53.873Z,102274.66
2019-02-11T07:19:30.374Z,102277.37
2019-02-11T07:22:00.956Z,102285.16
2019-02-11T07:27:11.690Z,102298.47
2019-02-11T07:29:44.648Z,102304.43
2019-02-11T07:32:18.372Z,102322.02
2019-02-11T07:34:54.377Z,102339.39
2019-02-11T07:37:27.653Z,102340.97
2019-02-11T07:40:03.296Z,102345.31
2019-02-11T07:42:44.445Z,102358.23
2019-02-11T07:45:30.178Z,102368.32
2019-02-11T07:47:58.001Z,102375.41
2019-02-11T07:50:31.058Z,102389.42
2019-02-11T07:53:05.662Z,102389.61
2019-02-11T07:55:37.572Z,102391.91
2019-02-11T07:58:12.813Z,102398.86
2019-02-11T08:00:48.085Z,102397.18
2019-02-11T08:08:47.292Z,102412.73
2019-02-11T08:11:25.537Z,102420.30
2019-02-11T08:14:00.405Z,102426.22
2019-02-11T08:16:32.606Z,102440.27
2019-02-11T08:19:12.645Z,102442.83
2019-02-11T08:22:06.621Z,102454.91
2019-02-11T08:24:37.961Z,102465.30
2019-02-11T08:27:09.535Z,102472.41
2019-02-11T08:29:46.243Z,102492.20
2019-02-11T08:32:20.741Z,102494.08
2019-02-11T08:34:59.735Z,102503.56
2019-02-11T08:37:33.248Z,102509.45
2019-02-11T08:40:06.495Z,102523.84
2019-02-11T08:42:37.060Z,102511.13
2019-02-11T08:45:21.439Z,102516.50
2019-02-11T08:47:52.884Z,102517.52
2019-02-11T08:50:29.392Z,102522.82
2019-02-11T08:53:41.777Z,102526.15
2019-02-11T08:56:16.365Z,102530.62
2019-02-11T08:58:50.657Z,102542.77
2019-02-11T09:01:38.202Z,102537.23
2019-02-11T09:04:19.007Z,102545.83
2019-02-11T09:09:49.665Z,102548.30
2019-02-11T09:12:18.709Z,102552.77
2019-02-11T09:14:48.266Z,102554.52
2019-02-11T09:17:18.285Z,102567.34
2019-02-11T09:19:50.674Z,102564.73
2019-02-11T09:22:21.050Z,102572.64
2019-02-11T09:25:00.784Z,102565.93
2019-02-11T09:27:41.678Z,102581.80
2019-02-11T09:30:19.999Z,102596.66
2019-02-11T09:32:56.790Z,102594.12
2019-02-11T09:35:33.821Z,102593.26
2019-02-11T09:38:04.257Z,102594.16
2019-02-11T09:40:41.618Z,102594.49
2019-02-11T09:43:14.869Z,102599.59
2019-02-11T09:45:45.967Z,102602.53
2019-02-11T09:48:16.664Z,102608.80
2019-02-11T09:50:48.648Z,102607.73
2019-02-11T09:53:18.281Z,102620.28
2019-02-11T09:55:47.321Z,102624.86
2019-02-11T09:58:16.610Z,102621.70
2019-02-11T10:00:49.412Z,102616.05
2019-02-11T10:03:22.661Z,102623.23
2019-02-11T10:05:53.283Z,102632.83
2019-02-11T10:11:32.697Z,102653.98
2019-02-11T10:14:04.257Z,102660.02
2019-02-11T10:16:36.965Z,102662.00
2019-02-11T10:19:06.894Z,102662.61
2019-02-11T10:21:37.214Z,102668.95
2019-02-11T10:24:07.097Z,102679.59
2019-02-11T10:26:37.913Z,102693.27
2019-02-11T10:29:09.500Z,102701.20
2019-02-11T10:31:41.508Z,102708.08
2019-02-11T10:34:15.108Z,102708.99
2019-02-11T10:36:46.803Z,102703.21
2019-02-11T10:39:20.036Z,102705.88
2019-02-11T10:41:50.448Z,102711.80
2019-02-11T10:44:20.526Z,102713.02
2019-02-11T10:50:12.548Z,102725.55
2019-02-11T10:52:57.346Z,102735.27
2019-02-11T10:55:26.876Z,102749.09
2019-02-11T10:57:56.382Z,102749.38
2019-02-11T11:00:26.362Z,102748.41
2019-02-11T11:02:55.507Z,102737.52
2019-02-11T11:05:29.071Z,102743.86
2019-02-11T11:08:01.490Z,102745.31
2019-02-11T11:10:33.637Z,102751.27
2019-02-11T11:13:06.566Z,102760.45
2019-02-11T11:15:42.959Z,102761.30
2019-02-11T11:18:18.117Z,102761.81
2019-02-11T11:20:52.470Z,102758.91
2019-02-11T11:23:22.316Z,102759.42
2019-02-11T11:25:58.814Z,102759.42
2019-02-11T11:31:14.919Z,102792.33
2019-02-11T11:33:45.457Z,102797.34
2019-02-11T11:36:14.647Z,102789.03
2019-02-11T11:38:45.433Z,102789.75
2019-02-11T11:41:15.979Z,102798.30
2019-02-11T11:43:45.387Z,102821.80
2019-02-11T11:46:15.527Z,102831.62
2019-02-11T11:48:46.158Z,102835.97
2019-02-11T11:51:17.593Z,102831.64
2019-02-11T11:53:49.777Z,102822.45
2019-02-11T11:56:30.370Z,102822.19
2019-02-11T11:58:59.695Z,102822.99
2019-02-11T12:01:29.956Z,102829.73
2019-02-11T12:04:06.392Z,102826.30
2019-02-11T12:06:41.070Z,102835.20
2019-02-11T12:09:12.108Z,102831.73
2019-02-11T12:11:42.965Z,102822.84
2019-02-11T12:14:13.062Z,102828.66
2019-02-11T12:16:56.212Z,102836.98
2019-02-11T12:19:12.173Z,102828.69
2019-02-11T12:21:42.718Z,102829.17
2019-02-11T12:24:16.205Z,102824.11
2019-02-11T12:26:52.160Z,102837.20
2019-02-11T12:29:26.898Z,102845.55
2019-02-11T12:32:02.269Z,102846.86
2019-02-11T12:34:33.056Z,102840.57
2019-02-11T12:37:08.858Z,102835.22
2019-02-11T12:39:40.449Z,102845.36
2019-02-11T12:42:11.625Z,102852.97
2019-02-11T12:44:43.669Z,102843.77
2019-02-11T12:47:15.597Z,102834.77
2019-02-11T12:49:44.877Z,102835.75
2019-02-11T12:52:16.728Z,102843.52
2019-02-11T12:54:50.018Z,102850.45
2019-02-11T12:57:23.193Z,102865.13
2019-02-11T12:59:53.143Z,102857.41
2019-02-11T13:02:23.579Z,102847.02
2019-02-11T13:04:55.556Z,102837.03
2019-02-11T13:07:30.253Z,102852.32
2019-02-11T13:09:59.622Z,102866.38
2019-02-11T13:12:30.030Z,102874.67
2019-02-11T13:15:01.875Z,102875.71
2019-02-11T13:17:35.003Z,102873.61
2019-02-11T13:20:08.882Z,102880.57
2019-02-11T13:22:36.330Z,102883.16
2019-02-11T13:25:08.941Z,102888.24
2019-02-11T13:27:37.988Z,102886.13
2019-02-11T13:30:11.998Z,102892.70
2019-02-11T13:32:42.359Z,102890.51
2019-02-11T13:35:15.538Z,102898.67
2019-02-11T13:37:46.597Z,102897.11
2019-02-11T13:40:17.831Z,102898.02
2019-02-11T13:42:46.898Z,102895.59
2019-02-11T13:45:20.814Z,102889.39
2019-02-11T13:47:57.663Z,102896.52
2019-02-11T13:50:24.797Z,102900.52
2019-02-11T13:52:59.025Z,102896.88
2019-02-11T13:55:31.825Z,102904.20
2019-02-11T13:58:01.355Z,102903.92
2019-02-11T14:00:38.021Z,102900.58
2019-02-11T14:03:09.141Z,102913.06
2019-02-11T14:05:40.506Z,102910.23
2019-02-11T14:08:20.509Z,102919.44
2019-02-11T14:10:50.239Z,102919.60
2019-02-11T14:13:20.824Z,102918.47
2019-02-11T14:15:56.099Z,102917.85
2019-02-11T14:18:35.253Z,102912.64
2019-02-11T14:21:08.385Z,102920.38
2019-02-11T14:23:41.445Z,102920.61
2019-02-11T14:26:11.531Z,102921.67
2019-02-11T14:28:51.665Z,102918.95
2019-02-11T14:31:33.028Z,102915.33
2019-02-11T14:34:03.510Z,102918.78
2019-02-11T14:36:33.702Z,102921.70
2019-02-11T14:41:39.826Z,102930.83
2019-02-11T14:44:15.427Z,102928.88
2019-02-11T14:46:49.588Z,102928.27
2019-02-11T14:49:20.710Z,102916.77
2019-02-11T14:51:58.092Z,102931.34
2019-02-11T14:54:28.648Z,102935.77
2019-02-11T14:57:07.477Z,102945.41
2019-02-11T14:59:42.736Z,102945.85
2019-02-11T15:02:17.845Z,102934.36
2019-02-11T15:04:50.394Z,102933.73
2019-02-11T15:07:30.916Z,102947.63
2019-02-11T15:10:03.950Z,102952.88
2019-02-11T15:12:36.278Z,102952.65
2019-02-11T15:15:09.770Z,102952.42
2019-02-11T15:17:42.886Z,102956.80
2019-02-11T15:20:15.174Z,102968.74
2019-02-11T15:22:44.669Z,102966.02
2019-02-11T15:25:21.254Z,102968.23
2019-02-11T15:27:51.972Z,102973.05
2019-02-11T15:30:22.458Z,102980.88
2019-02-11T15:32:57.587Z,102976.80
2019-02-11T15:35:32.845Z,102984.14
2019-02-11T15:38:07.531Z,102988.41
2019-02-11T15:40:38.287Z,102995.77
2019-02-11T15:43:11.480Z,103000.36
2019-02-11T15:45:42.186Z,103008.52
2019-02-11T15:48:16.895Z,103007.67
2019-02-11T15:50:56.442Z,103006.02
2019-02-11T15:53:26.767Z,103014.17
2019-02-11T15:55:57.669Z,103017.73
2019-02-11T15:58:28.006Z,103019.83
2019-02-11T16:01:03.498Z,103022.73
2019-02-11T16:03:39.873Z,103031.45
2019-02-11T16:06:19.217Z,103037.62
2019-02-11T16:08:52.324Z,103052.47
2019-02-11T16:11:22.055Z,103057.83
2019-02-11T16:13:56.756Z,103048.61
2019-02-11T16:16:27.782Z,103044.23
2019-02-11T16:18:57.294Z,103054.05
2019-02-11T16:21:40.589Z,103059.67
2019-02-11T16:24:11.754Z,103057.69
2019-02-11T16:26:45.135Z,103063.02
2019-02-11T16:29:15.348Z,103055.08
2019-02-11T16:31:46.518Z,103041.70
2019-02-11T16:34:20.821Z,103044.94
2019-02-11T16:36:50.956Z,103067.75
2019-02-11T16:39:20.867Z,103077.15
2019-02-11T16:41:54.638Z,103077.88
2019-02-11T16:44:28.239Z,103070.49
2019-02-11T16:46:59.251Z,103069.54
2019-02-11T16:49:33.055Z,103071.63
2019-02-11T16:52:04.983Z,103076.14
2019-02-11T16:54:40.057Z,103079.81
2019-02-11T16:57:26.378Z,103082.75
2019-02-11T17:03:11.840Z,103081.81
2019-02-11T17:05:42.856Z,103090.91
2019-02-11T17:08:15.384Z,103091.00
2019-02-11T17:10:49.350Z,103094.16
2019-02-11T17:13:20.422Z,103092.59
2019-02-11T17:15:56.793Z,103088.11
2019-02-11T17:18:26.564Z,103082.77
2019-02-11T17:20:59.862Z,103086.95
2019-02-11T17:23:31.709Z,103083.52
2019-02-11T17:26:02.535Z,103083.31
2019-02-11T17:28:33.615Z,103085.80
2019-02-11T17:31:04.209Z,103090.30
2019-02-11T17:33:33.428Z,103089.36
2019-02-11T17:36:11.625Z,103096.24
2019-02-11T17:38:46.032Z,103089.34
2019-02-11T17:41:16.818Z,103090.87
2019-02-11T17:43:51.239Z,103089.73
2019-02-11T17:46:21.498Z,103094.83
2019-02-11T17:48:53.505Z,103094.70
2019-02-11T17:51:24.992Z,103106.68
2019-02-11T17:54:03.554Z,103110.27
2019-02-11T17:56:35.484Z,103110.13
2019-02-11T17:59:12.021Z,103109.91
2019-02-11T18:01:42.752Z,103116.84
2019-02-11T18:04:14.190Z,103122.75
2019-02-11T18:06:43.860Z,103125.20
2019-02-11T18:09:15.585Z,103130.39
2019-02-11T18:11:48.398Z,103122.03
2019-02-11T18:14:19.814Z,103121.67
2019-02-11T18:16:52.467Z,103126.42
2019-02-11T18:19:26.298Z,103139.80
2019-02-11T18:21:54.315Z,103142.64
2019-02-11T18:24:24.486Z,103135.63
2019-02-11T18:26:55.098Z,103140.27
2019-02-11T18:29:26.878Z,103141.33
2019-02-11T18:31:58.412Z,103149.78
2019-02-11T18:34:28.949Z,103155.45
2019-02-11T18:37:00.768Z,103152.50
2019-02-11T18:39:30.737Z,103157.27
2019-02-11T18:42:00.624Z,103151.09
2019-02-11T18:44:33.664Z,103157.27
2019-02-11T18:47:05.962Z,103160.42
2019-02-11T18:49:35.208Z,103155.77
2019-02-11T18:52:06.414Z,103157.83
2019-02-11T18:54:36.766Z,103159.72
2019-02-11T18:57:10.850Z,103158.61
2019-02-11T18:59:41.395Z,103171.34
2019-02-11T19:02:13.291Z,103171.94
2019-02-11T19:04:42.826Z,103176.23
2019-02-11T19:07:16.403Z,103166.67
2019-02-11T19:09:47.057Z,103166.66
2019-02-11T19:12:19.123Z,103165.09
2019-02-11T19:14:49.654Z,103164.16
2019-02-11T19:17:20.319Z,103166.29
2019-02-11T19:19:50.993Z,103158.92
2019-02-11T19:22:22.333Z,103165.41
2019-02-11T19:24:50.762Z,103161.39
2019-02-11T19:27:23.729Z,103168.84
2019-02-11T19:29:54.786Z,103174.95
2019-02-11T19:32:25.188Z,103174.20
2019-02-11T19:34:56.437Z,103176.36
2019-02-11T19:37:30.650Z,103175.92
2019-02-11T19:40:05.757Z,103190.13
2019-02-11T19:42:35.132Z,103192.17
2019-02-11T19:45:06.133Z,103191.32
2019-02-11T19:47:36.521Z,103199.30
2019-02-11T19:50:11.906Z,103194.94
2019-02-11T19:52:42.112Z,103193.65
2019-02-11T19:55:12.334Z,103193.67
2019-02-11T19:57:44.199Z,103198.38
2019-02-11T20:00:18.872Z,103207.67
2019-02-11T20:02:50.465Z,103212.31
2019-02-11T20:05:19.710Z,103207.00
2019-02-11T20:07:49.704Z,103205.02
2019-02-11T20:10:21.913Z,103207.05
2019-02-11T20:12:55.584Z,103210.78
2019-02-11T20:15:25.431Z,103216.02
2019-02-11T20:17:55.133Z,103209.30
2019-02-11T20:20:26.308Z,103201.26
2019-02-11T20:22:55.662Z,103201.09
2019-02-11T20:25:25.660Z,103193.70
2019-02-11T20:27:57.867Z,103206.72
2019-02-11T20:30:27.734Z,103208.63
2019-02-11T20:32:58.467Z,103209.98
2019-02-11T20:35:30.839Z,103207.97
2019-02-11T20:38:03.234Z,103213.23
2019-02-11T20:40:36.941Z,103221.16
2019-02-11T20:43:10.350Z,103225.89
2019-02-11T20:45:46.366Z,103237.55
2019-02-11T20:48:17.119Z,103246.13
2019-02-11T20:50:47.332Z,103240.74
2019-02-11T20:53:17.024Z,103242.45
2019-02-11T20:55:50.007Z,103244.66
2019-02-11T20:58:22.346Z,103243.68
2019-02-11T21:00:52.973Z,103240.52
2019-02-11T21:03:22.610Z,103243.90
2019-02-11T21:05:53.279Z,103240.35
2019-02-11T21:08:27.781Z,103244.88
2019-02-11T21:10:58.999Z,103247.56
2019-02-11T21:13:29.647Z,103249.59
2019-02-11T21:16:00.378Z,103244.88
2019-02-11T21:18:31.212Z,103239.66
2019-02-11T21:21:04.169Z,103243.22
2019-02-11T21:23:33.306Z,103244.94
2019-02-11T21:26:03.798Z,103250.88
2019-02-11T21:28:36.788Z,103252.73
2019-02-11T21:31:05.906Z,103257.94
2019-02-11T21:33:42.277Z,103256.09
2019-02-11T21:36:11.844Z,103255.42
2019-02-11T21:38:41.560Z,103253.77
2019-02-11T21:41:10.994Z,103252.11
2019-02-11T21:43:39.992Z,103253.14
2019-02-11T21:46:11.711Z,103242.69
2019-02-11T21:48:45.218Z,103248.29
2019-02-11T21:51:19.051Z,103255.52
2019-02-11T21:53:52.655Z,103259.25
2019-02-11T21:56:24.282Z,103254.53
2019-02-11T21:58:59.138Z,103249.47
2019-02-11T22:01:28.373Z,103263.46
2019-02-11T22:04:00.607Z,103263.64
2019-02-11T22:06:30.616Z,103266.65
2019-02-11T22:09:01.186Z,103270.05
2019-02-11T22:11:31.852Z,103267.67
2019-02-11T22:14:10.085Z,103268.70
2019-02-11T22:16:40.628Z,103271.56
2019-02-11T22:19:10.946Z,103280.14
2019-02-11T22:21:41.568Z,103278.44
2019-02-11T22:24:11.376Z,103278.80
2019-02-11T22:26:41.622Z,103275.11
2019-02-11T22:29:12.593Z,103277.97
2019-02-11T22:31:42.566Z,103276.09
2019-02-11T22:34:13.645Z,103283.67
2019-02-11T22:36:44.849Z,103286.72
2019-02-11T22:39:16.564Z,103289.08
2019-02-11T22:41:46.874Z,103289.08
2019-02-11T22:44:17.728Z,103286.55
2019-02-11T22:46:47.319Z,103286.87
2019-02-11T22:49:16.645Z,103287.05
2019-02-11T22:51:47.082Z,103284.86
2019-02-11T22:54:16.055Z,103281.49
2019-02-11T22:56:49.111Z,103282.84
2019-02-11T22:59:20.271Z,103287.71
2019-02-11T23:01:50.735Z,103283.17
2019-02-11T23:04:22.004Z,103298.83
2019-02-11T23:06:51.601Z,103299.84
2019-02-11T23:09:20.585Z,103298.67
2019-02-11T23:11:51.963Z,103306.39
2019-02-11T23:14:25.117Z,103304.87
2019-02-11T23:16:57.386Z,103310.11
2019-02-11T23:19:27.454Z,103314.30
2019-02-11T23:21:59.465Z,103312.28
2019-02-11T23:24:30.561Z,103309.10
2019-02-11T23:27:00.596Z,103307.41
2019-02-11T23:29:35.539Z,103314.48
2019-02-11T23:32:06.328Z,103317.48
2019-02-11T23:34:35.792Z,103325.56
2019-02-11T23:37:05.636Z,103320.20
2019-02-11T23:39:34.861Z,103315.97
2019-02-11T23:42:05.087Z,103317.66
2019-02-11T23:44:44.899Z,103319.35
2019-02-11T23:47:20.896Z,103320.85
2019-02-11T23:49:55.750Z,103317.48
2019-02-11T23:52:26.142Z,103320.88
2019-02-11T23:54:57.851Z,103317.83
2019-02-11T23:57:35.695Z,103318.17
